sensor_id;sensor_type;location;lat;lon;timestamp;temperature;humidity
15554;DHT22;7878;44.632;10.942;2023-06-24T00:01:25;26.20;99.90
15554;DHT22;7878;44.632;10.942;2023-06-24T00:03:51;26.20;99.90
15554;DHT22;7878;44.632;10.942;2023-06-24T00:06:19;26.20;99.90
15554;DHT22;7878;44.632;10.942;2023-06-24T00:08:48;26.20;99.90
15554;DHT22;7878;44.632;10.942;2023-06-24T00:11:15;26.30;99.90
15554;DHT22;7878;44.632;10.942;2023-06-24T00:13:41;26.20;99.90
15554;DHT22;7878;44.632;10.942;2023-06-24T00:16:08;26.20;99.90
15554;DHT22;7878;44.632;10.942;2023-06-24T00:18:37;26.20;99.90
15554;DHT22;7878;44.632;10.942;2023-06-24T00:21:06;26.20;99.90
15554;DHT22;7878;44.632;10.942;2023-06-24T00:23:32;26.20;99.90
15554;DHT22;7878;44.632;10.942;2023-06-24T00:26:00;26.20;99.90
15554;DHT22;7878;44.632;10.942;2023-06-24T00:28:26;26.10;99.90
15554;DHT22;7878;44.632;10.942;2023-06-24T00:30:52;26.10;99.90
15554;DHT22;7878;44.632;10.942;2023-06-24T00:33:19;26.00;99.90
15554;DHT22;7878;44.632;10.942;2023-06-24T00:35:47;26.00;99.90
15554;DHT22;7878;44.632;10.942;2023-06-24T00:38:13;26.00;99.90
15554;DHT22;7878;44.632;10.942;2023-06-24T00:40:39;26.00;99.90
15554;DHT22;7878;44.632;10.942;2023-06-24T00:43:05;26.00;99.90
15554;DHT22;7878;44.632;10.942;2023-06-24T00:45:32;26.00;99.90
15554;DHT22;7878;44.632;10.942;2023-06-24T00:48:01;26.10;99.90
15554;DHT22;7878;44.632;10.942;2023-06-24T00:50:28;26.00;99.90
15554;DHT22;7878;44.632;10.942;2023-06-24T00:52:54;25.90;99.90
15554;DHT22;7878;44.632;10.942;2023-06-24T00:55:20;25.90;99.90
15554;DHT22;7878;44.632;10.942;2023-06-24T00:57:48;25.90;99.90
15554;DHT22;7878;44.632;10.942;2023-06-24T01:00:16;25.90;99.90
15554;DHT22;7878;44.632;10.942;2023-06-24T01:02:44;25.90;99.90
15554;DHT22;7878;44.632;10.942;2023-06-24T01:05:13;25.90;99.90
15554;DHT22;7878;44.632;10.942;2023-06-24T01:07:40;25.80;99.90
15554;DHT22;7878;44.632;10.942;2023-06-24T01:10:07;25.80;99.90
15554;DHT22;7878;44.632;10.942;2023-06-24T01:12:35;25.80;99.90
15554;DHT22;7878;44.632;10.942;2023-06-24T01:15:02;25.70;99.90
15554;DHT22;7878;44.632;10.942;2023-06-24T01:20:37;25.70;99.90
15554;DHT22;7878;44.632;10.942;2023-06-24T01:33:48;25.60;99.90
15554;DHT22;7878;44.632;10.942;2023-06-24T01:36:18;25.60;99.90
15554;DHT22;7878;44.632;10.942;2023-06-24T01:38:51;25.50;99.90
15554;DHT22;7878;44.632;10.942;2023-06-24T01:41:23;25.40;99.90
15554;DHT22;7878;44.632;10.942;2023-06-24T01:43:53;25.40;99.90
15554;DHT22;7878;44.632;10.942;2023-06-24T01:46:22;25.30;99.90
15554;DHT22;7878;44.632;10.942;2023-06-24T01:48:50;25.30;99.90
15554;DHT22;7878;44.632;10.942;2023-06-24T01:51:19;25.30;99.90
15554;DHT22;7878;44.632;10.942;2023-06-24T01:54:02;25.20;99.90
15554;DHT22;7878;44.632;10.942;2023-06-24T01:56:30;25.30;99.90
15554;DHT22;7878;44.632;10.942;2023-06-24T01:59:00;25.20;99.90
15554;DHT22;7878;44.632;10.942;2023-06-24T02:01:27;25.10;99.90
15554;DHT22;7878;44.632;10.942;2023-06-24T02:03:54;25.10;99.90
15554;DHT22;7878;44.632;10.942;2023-06-24T02:06:22;25.10;99.90
15554;DHT22;7878;44.632;10.942;2023-06-24T02:08:50;25.10;99.90
15554;DHT22;7878;44.632;10.942;2023-06-24T02:11:18;25.10;99.90
15554;DHT22;7878;44.632;10.942;2023-06-24T02:13:45;25.00;99.90
15554;DHT22;7878;44.632;10.942;2023-06-24T02:16:11;25.00;99.90
15554;DHT22;7878;44.632;10.942;2023-06-24T02:18:39;25.10;99.90
15554;DHT22;7878;44.632;10.942;2023-06-24T02:21:09;25.10;99.90
15554;DHT22;7878;44.632;10.942;2023-06-24T02:23:37;25.10;99.90
15554;DHT22;7878;44.632;10.942;2023-06-24T02:26:04;25.10;99.90
15554;DHT22;7878;44.632;10.942;2023-06-24T02:28:32;25.10;99.90
15554;DHT22;7878;44.632;10.942;2023-06-24T02:30:59;25.00;99.90
15554;DHT22;7878;44.632;10.942;2023-06-24T02:33:25;25.00;99.90
15554;DHT22;7878;44.632;10.942;2023-06-24T02:35:55;25.00;99.90
15554;DHT22;7878;44.632;10.942;2023-06-24T02:38:20;25.00;99.90
15554;DHT22;7878;44.632;10.942;2023-06-24T02:40:46;25.00;99.90
15554;DHT22;7878;44.632;10.942;2023-06-24T02:43:12;24.90;99.90
15554;DHT22;7878;44.632;10.942;2023-06-24T02:45:38;24.90;99.90
15554;DHT22;7878;44.632;10.942;2023-06-24T02:48:05;24.90;99.90
15554;DHT22;7878;44.632;10.942;2023-06-24T02:50:33;24.80;99.90
15554;DHT22;7878;44.632;10.942;2023-06-24T02:52:59;24.80;99.90
15554;DHT22;7878;44.632;10.942;2023-06-24T02:55:25;24.80;99.90
15554;DHT22;7878;44.632;10.942;2023-06-24T02:57:51;24.70;99.90
15554;DHT22;7878;44.632;10.942;2023-06-24T03:00:18;24.70;99.90
15554;DHT22;7878;44.632;10.942;2023-06-24T03:02:45;24.70;99.90
15554;DHT22;7878;44.632;10.942;2023-06-24T03:05:12;24.70;99.90
15554;DHT22;7878;44.632;10.942;2023-06-24T03:07:38;24.70;99.90
15554;DHT22;7878;44.632;10.942;2023-06-24T03:10:04;24.70;99.90
15554;DHT22;7878;44.632;10.942;2023-06-24T03:12:33;24.70;99.90
15554;DHT22;7878;44.632;10.942;2023-06-24T03:14:59;24.70;99.90
15554;DHT22;7878;44.632;10.942;2023-06-24T03:17:26;24.70;99.90
15554;DHT22;7878;44.632;10.942;2023-06-24T03:19:52;24.60;99.90
15554;DHT22;7878;44.632;10.942;2023-06-24T03:22:18;24.70;99.90
15554;DHT22;7878;44.632;10.942;2023-06-24T03:24:44;24.70;99.90
15554;DHT22;7878;44.632;10.942;2023-06-24T03:27:09;24.70;99.90
15554;DHT22;7878;44.632;10.942;2023-06-24T03:29:35;24.60;99.90
15554;DHT22;7878;44.632;10.942;2023-06-24T03:32:01;24.70;99.90
15554;DHT22;7878;44.632;10.942;2023-06-24T03:34:27;24.60;99.90
15554;DHT22;7878;44.632;10.942;2023-06-24T03:36:53;24.60;99.90
15554;DHT22;7878;44.632;10.942;2023-06-24T03:39:22;24.60;99.90
15554;DHT22;7878;44.632;10.942;2023-06-24T03:41:48;24.60;99.90
15554;DHT22;7878;44.632;10.942;2023-06-24T03:44:14;24.60;99.90
15554;DHT22;7878;44.632;10.942;2023-06-24T03:46:40;24.60;99.90
15554;DHT22;7878;44.632;10.942;2023-06-24T03:49:06;24.70;99.90
15554;DHT22;7878;44.632;10.942;2023-06-24T03:51:32;24.70;99.90
15554;DHT22;7878;44.632;10.942;2023-06-24T03:53:58;24.70;99.90
15554;DHT22;7878;44.632;10.942;2023-06-24T03:56:24;24.60;99.90
15554;DHT22;7878;44.632;10.942;2023-06-24T03:58:49;24.60;99.90
15554;DHT22;7878;44.632;10.942;2023-06-24T04:01:15;24.60;99.90
15554;DHT22;7878;44.632;10.942;2023-06-24T04:03:45;24.60;99.90
15554;DHT22;7878;44.632;10.942;2023-06-24T04:06:11;24.60;99.90
15554;DHT22;7878;44.632;10.942;2023-06-24T04:08:36;24.60;99.90
15554;DHT22;7878;44.632;10.942;2023-06-24T04:11:05;24.60;99.90
15554;DHT22;7878;44.632;10.942;2023-06-24T04:13:32;24.60;99.90
15554;DHT22;7878;44.632;10.942;2023-06-24T04:15:58;24.60;99.90
15554;DHT22;7878;44.632;10.942;2023-06-24T04:18:24;24.60;99.90
15554;DHT22;7878;44.632;10.942;2023-06-24T04:20:49;24.50;99.90
15554;DHT22;7878;44.632;10.942;2023-06-24T04:23:16;24.50;99.90
15554;DHT22;7878;44.632;10.942;2023-06-24T04:25:41;24.50;99.90
15554;DHT22;7878;44.632;10.942;2023-06-24T04:28:08;24.50;99.90
15554;DHT22;7878;44.632;10.942;2023-06-24T04:30:34;24.60;99.90
15554;DHT22;7878;44.632;10.942;2023-06-24T04:33:04;24.50;99.90
15554;DHT22;7878;44.632;10.942;2023-06-24T04:35:30;24.50;99.90
15554;DHT22;7878;44.632;10.942;2023-06-24T04:37:56;24.40;99.90
15554;DHT22;7878;44.632;10.942;2023-06-24T04:40:22;24.40;99.90
15554;DHT22;7878;44.632;10.942;2023-06-24T04:42:48;24.30;99.90
15554;DHT22;7878;44.632;10.942;2023-06-24T04:45:14;24.40;99.90
15554;DHT22;7878;44.632;10.942;2023-06-24T04:47:40;24.50;99.90
15554;DHT22;7878;44.632;10.942;2023-06-24T04:50:06;24.40;99.90
15554;DHT22;7878;44.632;10.942;2023-06-24T04:52:35;24.40;99.90
15554;DHT22;7878;44.632;10.942;2023-06-24T04:55:00;24.40;99.90
15554;DHT22;7878;44.632;10.942;2023-06-24T04:57:31;24.40;99.90
15554;DHT22;7878;44.632;10.942;2023-06-24T04:59:58;24.30;99.90
15554;DHT22;7878;44.632;10.942;2023-06-24T05:02:24;24.30;99.90
15554;DHT22;7878;44.632;10.942;2023-06-24T05:04:51;24.40;99.90
15554;DHT22;7878;44.632;10.942;2023-06-24T05:07:17;24.50;99.90
15554;DHT22;7878;44.632;10.942;2023-06-24T05:09:42;24.50;99.90
15554;DHT22;7878;44.632;10.942;2023-06-24T05:12:09;24.50;99.90
15554;DHT22;7878;44.632;10.942;2023-06-24T05:14:35;24.60;99.90
15554;DHT22;7878;44.632;10.942;2023-06-24T05:17:02;24.60;99.90
15554;DHT22;7878;44.632;10.942;2023-06-24T05:19:28;24.70;99.90
15554;DHT22;7878;44.632;10.942;2023-06-24T05:21:53;24.60;99.90
15554;DHT22;7878;44.632;10.942;2023-06-24T05:24:19;24.70;99.90
15554;DHT22;7878;44.632;10.942;2023-06-24T05:26:48;24.70;99.90
15554;DHT22;7878;44.632;10.942;2023-06-24T05:29:13;24.80;99.90
15554;DHT22;7878;44.632;10.942;2023-06-24T05:31:40;24.80;99.90
15554;DHT22;7878;44.632;10.942;2023-06-24T05:34:06;24.90;99.90
15554;DHT22;7878;44.632;10.942;2023-06-24T05:36:31;25.00;99.90
15554;DHT22;7878;44.632;10.942;2023-06-24T05:38:57;25.00;99.90
15554;DHT22;7878;44.632;10.942;2023-06-24T05:41:23;25.10;99.90
15554;DHT22;7878;44.632;10.942;2023-06-24T05:43:49;25.10;99.90
15554;DHT22;7878;44.632;10.942;2023-06-24T05:46:15;25.20;99.90
15554;DHT22;7878;44.632;10.942;2023-06-24T05:48:40;25.20;99.90
15554;DHT22;7878;44.632;10.942;2023-06-24T05:51:07;25.30;99.90
15554;DHT22;7878;44.632;10.942;2023-06-24T05:53:34;25.40;99.90
15554;DHT22;7878;44.632;10.942;2023-06-24T05:55:59;25.50;99.90
15554;DHT22;7878;44.632;10.942;2023-06-24T05:58:25;25.60;99.90
15554;DHT22;7878;44.632;10.942;2023-06-24T06:00:51;25.60;99.90
15554;DHT22;7878;44.632;10.942;2023-06-24T06:03:17;25.70;99.90
15554;DHT22;7878;44.632;10.942;2023-06-24T06:05:43;25.70;99.90
15554;DHT22;7878;44.632;10.942;2023-06-24T06:08:08;25.80;99.90
15554;DHT22;7878;44.632;10.942;2023-06-24T06:10:34;25.90;99.90
15554;DHT22;7878;44.632;10.942;2023-06-24T06:13:00;25.90;99.90
15554;DHT22;7878;44.632;10.942;2023-06-24T06:15:25;26.00;99.90
15554;DHT22;7878;44.632;10.942;2023-06-24T06:17:52;26.10;99.90
15554;DHT22;7878;44.632;10.942;2023-06-24T06:20:17;26.20;99.90
15554;DHT22;7878;44.632;10.942;2023-06-24T06:22:43;26.30;99.90
15554;DHT22;7878;44.632;10.942;2023-06-24T06:25:09;26.40;99.90
15554;DHT22;7878;44.632;10.942;2023-06-24T06:27:34;26.60;99.90
15554;DHT22;7878;44.632;10.942;2023-06-24T06:30:00;26.70;99.90
15554;DHT22;7878;44.632;10.942;2023-06-24T06:32:26;26.90;99.90
15554;DHT22;7878;44.632;10.942;2023-06-24T06:34:51;27.00;99.90
15554;DHT22;7878;44.632;10.942;2023-06-24T06:37:17;27.10;99.90
15554;DHT22;7878;44.632;10.942;2023-06-24T06:39:43;27.20;99.90
15554;DHT22;7878;44.632;10.942;2023-06-24T06:42:08;27.20;99.90
15554;DHT22;7878;44.632;10.942;2023-06-24T06:44:34;27.20;99.90
15554;DHT22;7878;44.632;10.942;2023-06-24T06:47:00;27.20;99.90
15554;DHT22;7878;44.632;10.942;2023-06-24T06:49:25;27.30;99.90
15554;DHT22;7878;44.632;10.942;2023-06-24T06:51:54;27.30;99.90
15554;DHT22;7878;44.632;10.942;2023-06-24T06:54:20;27.40;99.90
15554;DHT22;7878;44.632;10.942;2023-06-24T06:56:45;27.50;99.90
15554;DHT22;7878;44.632;10.942;2023-06-24T06:59:11;27.50;99.90
15554;DHT22;7878;44.632;10.942;2023-06-24T07:01:37;27.70;99.90
15554;DHT22;7878;44.632;10.942;2023-06-24T07:04:03;27.90;99.90
15554;DHT22;7878;44.632;10.942;2023-06-24T07:06:28;28.00;99.90
15554;DHT22;7878;44.632;10.942;2023-06-24T07:08:54;28.00;99.90
15554;DHT22;7878;44.632;10.942;2023-06-24T07:11:20;27.90;99.90
15554;DHT22;7878;44.632;10.942;2023-06-24T07:13:45;27.90;99.90
15554;DHT22;7878;44.632;10.942;2023-06-24T07:16:11;27.90;99.90
15554;DHT22;7878;44.632;10.942;2023-06-24T07:18:37;27.80;99.90
15554;DHT22;7878;44.632;10.942;2023-06-24T07:21:03;27.70;99.90
15554;DHT22;7878;44.632;10.942;2023-06-24T07:23:29;27.50;99.90
15554;DHT22;7878;44.632;10.942;2023-06-24T07:25:54;27.50;99.90
15554;DHT22;7878;44.632;10.942;2023-06-24T07:28:20;27.60;99.90
15554;DHT22;7878;44.632;10.942;2023-06-24T07:30:46;27.60;99.90
15554;DHT22;7878;44.632;10.942;2023-06-24T07:33:11;27.70;99.90
15554;DHT22;7878;44.632;10.942;2023-06-24T07:35:37;27.70;99.90
15554;DHT22;7878;44.632;10.942;2023-06-24T07:38:02;27.70;99.90
15554;DHT22;7878;44.632;10.942;2023-06-24T07:40:28;27.70;99.90
15554;DHT22;7878;44.632;10.942;2023-06-24T07:42:54;27.70;99.90
15554;DHT22;7878;44.632;10.942;2023-06-24T07:45:20;27.70;99.90
15554;DHT22;7878;44.632;10.942;2023-06-24T07:47:46;27.70;99.90
15554;DHT22;7878;44.632;10.942;2023-06-24T07:50:11;27.80;99.90
15554;DHT22;7878;44.632;10.942;2023-06-24T07:52:38;27.80;99.90
15554;DHT22;7878;44.632;10.942;2023-06-24T07:55:04;27.80;99.90
15554;DHT22;7878;44.632;10.942;2023-06-24T07:57:30;27.90;99.90
15554;DHT22;7878;44.632;10.942;2023-06-24T07:59:56;27.90;99.90
15554;DHT22;7878;44.632;10.942;2023-06-24T08:02:21;27.90;99.90
15554;DHT22;7878;44.632;10.942;2023-06-24T08:04:49;27.90;99.90
15554;DHT22;7878;44.632;10.942;2023-06-24T08:07:15;28.00;99.90
15554;DHT22;7878;44.632;10.942;2023-06-24T08:09:41;28.00;99.90
15554;DHT22;7878;44.632;10.942;2023-06-24T08:12:07;28.00;99.90
15554;DHT22;7878;44.632;10.942;2023-06-24T08:14:32;28.00;99.90
15554;DHT22;7878;44.632;10.942;2023-06-24T08:16:58;28.00;99.90
15554;DHT22;7878;44.632;10.942;2023-06-24T08:19:24;28.00;99.90
15554;DHT22;7878;44.632;10.942;2023-06-24T08:21:49;28.10;99.90
15554;DHT22;7878;44.632;10.942;2023-06-24T08:24:15;28.10;99.90
15554;DHT22;7878;44.632;10.942;2023-06-24T08:26:41;28.20;99.90
15554;DHT22;7878;44.632;10.942;2023-06-24T08:29:06;28.20;99.90
15554;DHT22;7878;44.632;10.942;2023-06-24T08:31:33;28.20;99.90
15554;DHT22;7878;44.632;10.942;2023-06-24T08:34:01;28.20;99.90
15554;DHT22;7878;44.632;10.942;2023-06-24T08:36:32;28.20;99.90
15554;DHT22;7878;44.632;10.942;2023-06-24T08:38:58;28.20;99.90
15554;DHT22;7878;44.632;10.942;2023-06-24T08:41:24;28.20;99.90
15554;DHT22;7878;44.632;10.942;2023-06-24T08:43:50;28.30;99.90
15554;DHT22;7878;44.632;10.942;2023-06-24T08:46:17;28.30;99.90
15554;DHT22;7878;44.632;10.942;2023-06-24T08:48:45;28.30;99.90
15554;DHT22;7878;44.632;10.942;2023-06-24T08:51:16;28.40;99.90
15554;DHT22;7878;44.632;10.942;2023-06-24T08:53:43;28.50;99.90
15554;DHT22;7878;44.632;10.942;2023-06-24T08:56:10;28.50;99.90
15554;DHT22;7878;44.632;10.942;2023-06-24T08:58:36;28.50;99.90
15554;DHT22;7878;44.632;10.942;2023-06-24T09:01:02;28.50;99.90
15554;DHT22;7878;44.632;10.942;2023-06-24T09:03:28;28.60;99.90
15554;DHT22;7878;44.632;10.942;2023-06-24T09:05:54;28.60;99.90
15554;DHT22;7878;44.632;10.942;2023-06-24T09:08:21;28.60;99.90
15554;DHT22;7878;44.632;10.942;2023-06-24T09:10:53;28.60;99.90
15554;DHT22;7878;44.632;10.942;2023-06-24T09:13:20;28.70;99.90
15554;DHT22;7878;44.632;10.942;2023-06-24T09:15:45;28.80;99.90
15554;DHT22;7878;44.632;10.942;2023-06-24T09:18:11;28.80;99.90
15554;DHT22;7878;44.632;10.942;2023-06-24T09:20:41;28.90;99.90
15554;DHT22;7878;44.632;10.942;2023-06-24T09:23:10;28.90;99.90
15554;DHT22;7878;44.632;10.942;2023-06-24T09:25:36;28.90;99.90
15554;DHT22;7878;44.632;10.942;2023-06-24T09:28:02;28.90;99.90
15554;DHT22;7878;44.632;10.942;2023-06-24T09:30:28;29.00;99.90
15554;DHT22;7878;44.632;10.942;2023-06-24T09:32:55;29.00;99.90
15554;DHT22;7878;44.632;10.942;2023-06-24T09:35:24;29.00;99.90
15554;DHT22;7878;44.632;10.942;2023-06-24T09:37:54;29.00;99.90
15554;DHT22;7878;44.632;10.942;2023-06-24T09:40:21;29.00;99.90
15554;DHT22;7878;44.632;10.942;2023-06-24T09:42:57;29.00;99.90
15554;DHT22;7878;44.632;10.942;2023-06-24T09:45:27;29.00;99.90
15554;DHT22;7878;44.632;10.942;2023-06-24T09:47:54;29.00;99.90
15554;DHT22;7878;44.632;10.942;2023-06-24T09:50:21;29.00;99.90
15554;DHT22;7878;44.632;10.942;2023-06-24T09:52:48;29.10;99.90
15554;DHT22;7878;44.632;10.942;2023-06-24T09:55:15;29.10;99.90
15554;DHT22;7878;44.632;10.942;2023-06-24T09:57:47;29.20;99.90
15554;DHT22;7878;44.632;10.942;2023-06-24T10:00:15;29.30;99.90
15554;DHT22;7878;44.632;10.942;2023-06-24T10:02:42;29.40;99.90
15554;DHT22;7878;44.632;10.942;2023-06-24T10:05:08;29.50;99.90
15554;DHT22;7878;44.632;10.942;2023-06-24T10:07:36;29.50;99.90
15554;DHT22;7878;44.632;10.942;2023-06-24T10:10:04;29.60;99.90
15554;DHT22;7878;44.632;10.942;2023-06-24T10:12:30;29.70;99.90
15554;DHT22;7878;44.632;10.942;2023-06-24T10:14:58;29.80;99.90
15554;DHT22;7878;44.632;10.942;2023-06-24T10:17:24;30.20;99.90
15554;DHT22;7878;44.632;10.942;2023-06-24T10:19:52;30.80;99.90
15554;DHT22;7878;44.632;10.942;2023-06-24T10:22:24;31.50;99.90
15554;DHT22;7878;44.632;10.942;2023-06-24T10:24:52;32.10;99.90
15554;DHT22;7878;44.632;10.942;2023-06-24T10:27:20;33.10;99.90
15554;DHT22;7878;44.632;10.942;2023-06-24T10:29:53;33.80;99.90
15554;DHT22;7878;44.632;10.942;2023-06-24T10:32:22;34.20;99.90
15554;DHT22;7878;44.632;10.942;2023-06-24T10:34:55;34.70;99.90
15554;DHT22;7878;44.632;10.942;2023-06-24T10:37:23;35.20;99.90
15554;DHT22;7878;44.632;10.942;2023-06-24T10:39:56;34.80;99.90
15554;DHT22;7878;44.632;10.942;2023-06-24T10:42:43;34.30;99.90
15554;DHT22;7878;44.632;10.942;2023-06-24T10:45:17;34.30;99.90
15554;DHT22;7878;44.632;10.942;2023-06-24T10:47:46;34.60;99.90
15554;DHT22;7878;44.632;10.942;2023-06-24T10:50:15;34.50;99.90
15554;DHT22;7878;44.632;10.942;2023-06-24T10:52:43;34.40;99.90
15554;DHT22;7878;44.632;10.942;2023-06-24T10:55:09;34.10;99.90
15554;DHT22;7878;44.632;10.942;2023-06-24T10:57:35;33.80;99.90
15554;DHT22;7878;44.632;10.942;2023-06-24T11:00:02;33.50;99.90
15554;DHT22;7878;44.632;10.942;2023-06-24T11:02:29;33.40;99.90
15554;DHT22;7878;44.632;10.942;2023-06-24T11:04:57;33.30;99.90
15554;DHT22;7878;44.632;10.942;2023-06-24T11:07:25;33.20;99.90
15554;DHT22;7878;44.632;10.942;2023-06-24T11:09:55;33.20;99.90
15554;DHT22;7878;44.632;10.942;2023-06-24T11:12:26;33.30;99.90
15554;DHT22;7878;44.632;10.942;2023-06-24T11:14:56;33.40;99.90
15554;DHT22;7878;44.632;10.942;2023-06-24T11:17:23;33.20;99.90
15554;DHT22;7878;44.632;10.942;2023-06-24T11:19:49;33.10;99.90
15554;DHT22;7878;44.632;10.942;2023-06-24T11:22:15;33.10;99.90
15554;DHT22;7878;44.632;10.942;2023-06-24T11:24:41;32.90;99.90
15554;DHT22;7878;44.632;10.942;2023-06-24T11:27:07;32.90;99.90
15554;DHT22;7878;44.632;10.942;2023-06-24T11:29:33;32.80;99.90
15554;DHT22;7878;44.632;10.942;2023-06-24T11:32:01;32.80;99.90
15554;DHT22;7878;44.632;10.942;2023-06-24T11:34:27;32.80;99.90
15554;DHT22;7878;44.632;10.942;2023-06-24T11:36:53;32.70;99.90
15554;DHT22;7878;44.632;10.942;2023-06-24T11:39:26;32.70;99.90
15554;DHT22;7878;44.632;10.942;2023-06-24T11:41:52;32.70;99.90
15554;DHT22;7878;44.632;10.942;2023-06-24T11:44:19;32.50;99.90
15554;DHT22;7878;44.632;10.942;2023-06-24T11:46:46;32.50;99.90
15554;DHT22;7878;44.632;10.942;2023-06-24T11:49:12;32.50;99.90
15554;DHT22;7878;44.632;10.942;2023-06-24T11:51:49;32.40;99.90
15554;DHT22;7878;44.632;10.942;2023-06-24T11:54:20;32.30;99.90
15554;DHT22;7878;44.632;10.942;2023-06-24T11:56:50;32.30;99.90
15554;DHT22;7878;44.632;10.942;2023-06-24T11:59:22;32.20;99.90
15554;DHT22;7878;44.632;10.942;2023-06-24T12:01:55;32.00;99.90
15554;DHT22;7878;44.632;10.942;2023-06-24T12:04:27;32.00;99.90
15554;DHT22;7878;44.632;10.942;2023-06-24T12:06:53;32.00;99.90
15554;DHT22;7878;44.632;10.942;2023-06-24T12:09:19;32.00;99.90
15554;DHT22;7878;44.632;10.942;2023-06-24T12:11:44;32.00;99.90
15554;DHT22;7878;44.632;10.942;2023-06-24T12:14:10;32.00;99.90
15554;DHT22;7878;44.632;10.942;2023-06-24T12:16:36;32.00;99.90
15554;DHT22;7878;44.632;10.942;2023-06-24T12:19:02;32.00;99.90
15554;DHT22;7878;44.632;10.942;2023-06-24T12:21:28;32.00;99.90
15554;DHT22;7878;44.632;10.942;2023-06-24T12:23:53;32.00;99.90
15554;DHT22;7878;44.632;10.942;2023-06-24T12:26:19;31.90;99.90
15554;DHT22;7878;44.632;10.942;2023-06-24T12:28:45;31.90;99.90
15554;DHT22;7878;44.632;10.942;2023-06-24T12:31:11;31.80;99.90
15554;DHT22;7878;44.632;10.942;2023-06-24T12:33:36;31.60;99.90
15554;DHT22;7878;44.632;10.942;2023-06-24T12:36:02;31.60;99.90
15554;DHT22;7878;44.632;10.942;2023-06-24T12:38:28;31.40;99.90
15554;DHT22;7878;44.632;10.942;2023-06-24T12:40:54;31.40;99.90
15554;DHT22;7878;44.632;10.942;2023-06-24T12:43:19;31.50;99.90
15554;DHT22;7878;44.632;10.942;2023-06-24T12:45:45;31.50;99.90
15554;DHT22;7878;44.632;10.942;2023-06-24T12:48:12;31.50;99.90
15554;DHT22;7878;44.632;10.942;2023-06-24T12:50:38;31.50;99.90
15554;DHT22;7878;44.632;10.942;2023-06-24T12:53:04;31.50;99.90
15554;DHT22;7878;44.632;10.942;2023-06-24T12:55:30;31.50;99.90
15554;DHT22;7878;44.632;10.942;2023-06-24T12:57:56;31.50;99.90
15554;DHT22;7878;44.632;10.942;2023-06-24T13:00:22;31.50;99.90
15554;DHT22;7878;44.632;10.942;2023-06-24T13:02:49;31.50;99.90
15554;DHT22;7878;44.632;10.942;2023-06-24T13:05:16;31.50;99.90
15554;DHT22;7878;44.632;10.942;2023-06-24T13:07:42;31.40;99.90
15554;DHT22;7878;44.632;10.942;2023-06-24T13:10:08;31.40;99.90
15554;DHT22;7878;44.632;10.942;2023-06-24T13:12:34;31.50;99.90
15554;DHT22;7878;44.632;10.942;2023-06-24T13:15:01;31.50;99.90
15554;DHT22;7878;44.632;10.942;2023-06-24T13:17:27;31.60;99.90
15554;DHT22;7878;44.632;10.942;2023-06-24T13:19:52;31.60;99.90
15554;DHT22;7878;44.632;10.942;2023-06-24T13:22:18;31.60;99.90
15554;DHT22;7878;44.632;10.942;2023-06-24T13:24:44;31.60;99.90
15554;DHT22;7878;44.632;10.942;2023-06-24T13:27:10;31.60;99.90
15554;DHT22;7878;44.632;10.942;2023-06-24T13:29:36;31.60;99.90
15554;DHT22;7878;44.632;10.942;2023-06-24T13:32:02;31.60;99.90
15554;DHT22;7878;44.632;10.942;2023-06-24T13:34:28;31.50;99.90
15554;DHT22;7878;44.632;10.942;2023-06-24T13:36:53;31.60;99.90
15554;DHT22;7878;44.632;10.942;2023-06-24T13:39:20;31.60;99.90
15554;DHT22;7878;44.632;10.942;2023-06-24T13:41:49;31.60;99.90
15554;DHT22;7878;44.632;10.942;2023-06-24T13:44:15;31.60;99.90
15554;DHT22;7878;44.632;10.942;2023-06-24T13:46:41;31.60;99.90
15554;DHT22;7878;44.632;10.942;2023-06-24T13:49:07;31.60;99.90
15554;DHT22;7878;44.632;10.942;2023-06-24T13:51:33;31.60;99.90
15554;DHT22;7878;44.632;10.942;2023-06-24T13:53:59;31.50;99.90
15554;DHT22;7878;44.632;10.942;2023-06-24T13:56:26;31.50;99.90
15554;DHT22;7878;44.632;10.942;2023-06-24T13:58:52;31.60;99.90
15554;DHT22;7878;44.632;10.942;2023-06-24T14:01:19;31.50;99.90
15554;DHT22;7878;44.632;10.942;2023-06-24T14:03:45;31.50;99.90
15554;DHT22;7878;44.632;10.942;2023-06-24T14:06:12;31.60;99.90
15554;DHT22;7878;44.632;10.942;2023-06-24T14:08:39;31.60;99.90
15554;DHT22;7878;44.632;10.942;2023-06-24T14:11:04;31.70;99.90
15554;DHT22;7878;44.632;10.942;2023-06-24T14:13:30;31.70;99.90
15554;DHT22;7878;44.632;10.942;2023-06-24T14:15:57;31.70;99.90
15554;DHT22;7878;44.632;10.942;2023-06-24T14:18:23;31.60;99.90
15554;DHT22;7878;44.632;10.942;2023-06-24T14:20:49;31.60;99.90
15554;DHT22;7878;44.632;10.942;2023-06-24T14:23:15;31.50;99.90
15554;DHT22;7878;44.632;10.942;2023-06-24T14:25:40;31.50;99.90
15554;DHT22;7878;44.632;10.942;2023-06-24T14:28:06;31.40;99.90
15554;DHT22;7878;44.632;10.942;2023-06-24T14:30:33;31.50;99.90
15554;DHT22;7878;44.632;10.942;2023-06-24T14:33:00;31.50;99.90
15554;DHT22;7878;44.632;10.942;2023-06-24T14:35:26;31.50;99.90
15554;DHT22;7878;44.632;10.942;2023-06-24T14:37:51;31.50;99.90
15554;DHT22;7878;44.632;10.942;2023-06-24T14:40:17;31.50;99.90
15554;DHT22;7878;44.632;10.942;2023-06-24T14:42:43;31.50;99.90
15554;DHT22;7878;44.632;10.942;2023-06-24T14:45:08;31.50;99.90
15554;DHT22;7878;44.632;10.942;2023-06-24T14:47:34;31.50;99.90
15554;DHT22;7878;44.632;10.942;2023-06-24T14:50:00;31.50;99.90
15554;DHT22;7878;44.632;10.942;2023-06-24T14:52:26;31.50;99.90
15554;DHT22;7878;44.632;10.942;2023-06-24T14:54:51;31.50;99.90
15554;DHT22;7878;44.632;10.942;2023-06-24T14:57:17;31.50;99.90
15554;DHT22;7878;44.632;10.942;2023-06-24T14:59:43;31.50;99.90
15554;DHT22;7878;44.632;10.942;2023-06-24T15:02:08;31.50;99.90
15554;DHT22;7878;44.632;10.942;2023-06-24T15:04:35;31.50;99.90
15554;DHT22;7878;44.632;10.942;2023-06-24T15:07:01;31.50;99.90
15554;DHT22;7878;44.632;10.942;2023-06-24T15:09:27;31.40;99.90
15554;DHT22;7878;44.632;10.942;2023-06-24T15:11:53;31.30;99.90
15554;DHT22;7878;44.632;10.942;2023-06-24T15:14:18;31.30;99.90
15554;DHT22;7878;44.632;10.942;2023-06-24T15:16:44;31.20;99.90
15554;DHT22;7878;44.632;10.942;2023-06-24T15:19:10;31.20;99.90
15554;DHT22;7878;44.632;10.942;2023-06-24T15:21:35;31.30;99.90
15554;DHT22;7878;44.632;10.942;2023-06-24T15:26:27;31.40;99.90
15554;DHT22;7878;44.632;10.942;2023-06-24T15:28:53;31.40;99.90
15554;DHT22;7878;44.632;10.942;2023-06-24T15:31:19;31.40;99.90
15554;DHT22;7878;44.632;10.942;2023-06-24T15:33:45;31.40;99.90
15554;DHT22;7878;44.632;10.942;2023-06-24T15:36:11;31.40;99.90
15554;DHT22;7878;44.632;10.942;2023-06-24T15:38:36;31.40;99.90
15554;DHT22;7878;44.632;10.942;2023-06-24T15:41:02;31.40;99.90
15554;DHT22;7878;44.632;10.942;2023-06-24T15:43:28;31.40;99.90